createdAt,value
2023-03-17T00:02:11.606Z,11.23
2023-03-17T00:04:40.141Z,10.35
2023-03-17T00:07:09.688Z,8.95
2023-03-17T00:09:38.350Z,11.27
2023-03-17T00:12:11.701Z,12.00
2023-03-17T00:14:41.767Z,8.38
2023-03-17T00:17:14.131Z,9.45
2023-03-17T00:19:44.667Z,10.30
2023-03-17T00:22:18.444Z,9.77
2023-03-17T00:24:46.894Z,8.20
2023-03-17T00:27:16.988Z,9.13
2023-03-17T00:29:47.045Z,7.32
2023-03-17T00:32:19.462Z,9.77
2023-03-17T00:34:48.493Z,7.70
2023-03-17T00:37:16.934Z,11.18
2023-03-17T00:39:45.376Z,11.02
2023-03-17T00:42:14.336Z,11.48
2023-03-17T00:44:42.786Z,10.65
2023-03-17T00:47:13.178Z,10.07
2023-03-17T00:49:41.712Z,8.52
2023-03-17T00:52:10.622Z,9.55
2023-03-17T00:54:39.072Z,14.02
2023-03-17T00:57:10.916Z,8.82
2023-03-17T00:59:42.380Z,9.32
2023-03-17T01:02:14.000Z,7.90
2023-03-17T01:04:49.981Z,9.60
2023-03-17T01:07:21.384Z,10.38
2023-03-17T01:09:49.936Z,11.50
2023-03-17T01:12:18.409Z,8.75
2023-03-17T01:14:47.090Z,7.20
2023-03-17T01:17:19.468Z,6.00
2023-03-17T01:19:48.925Z,6.35
2023-03-17T01:22:17.409Z,8.82
2023-03-17T01:24:47.816Z,6.05
2023-03-17T01:27:16.554Z,6.72
2023-03-17T01:29:44.989Z,8.52
2023-03-17T01:32:13.737Z,7.38
2023-03-17T01:34:43.811Z,6.82
2023-03-17T01:37:13.551Z,7.65
2023-03-17T01:39:43.111Z,7.30
2023-03-17T01:42:11.792Z,7.70
2023-03-17T01:44:59.809Z,7.78
2023-03-17T01:47:32.113Z,8.93
2023-03-17T01:50:07.619Z,7.35
2023-03-17T01:52:38.036Z,10.25
2023-03-17T01:55:10.595Z,9.82
2023-03-17T01:57:42.169Z,7.53
2023-03-17T02:00:16.418Z,7.03
2023-03-17T02:02:50.337Z,7.40
2023-03-17T02:05:24.343Z,11.15
2023-03-17T02:07:53.609Z,18.30
2023-03-17T02:10:25.258Z,16.73
2023-03-17T02:12:57.239Z,9.77
2023-03-17T02:15:36.573Z,12.52
2023-03-17T02:18:05.340Z,7.55
2023-03-17T02:21:42.134Z,8.77
2023-03-17T02:24:19.808Z,8.65
2023-03-17T02:26:49.710Z,8.57
2023-03-17T02:29:18.658Z,8.85
2023-03-17T02:31:47.458Z,8.25
2023-03-17T02:34:35.190Z,6.53
2023-03-17T02:37:05.751Z,6.00
2023-03-17T02:39:34.522Z,7.68
2023-03-17T02:42:03.253Z,8.05
2023-03-17T02:44:31.798Z,6.32
2023-03-17T02:47:01.043Z,7.82
2023-03-17T02:49:30.558Z,7.43
2023-03-17T02:51:59.438Z,6.77
2023-03-17T02:54:29.569Z,6.78
2023-03-17T02:56:58.045Z,8.00
2023-03-17T02:59:26.550Z,7.85
2023-03-17T03:01:56.216Z,5.47
2023-03-17T03:04:26.159Z,8.60
2023-03-17T03:06:54.956Z,7.88
2023-03-17T03:09:24.282Z,6.82
2023-03-17T03:11:54.383Z,6.55
2023-03-17T03:14:22.875Z,8.65
2023-03-17T03:16:52.313Z,7.25
2023-03-17T03:19:20.871Z,7.55
2023-03-17T03:21:49.544Z,5.70
2023-03-17T03:24:18.000Z,6.97
2023-03-17T03:26:46.506Z,7.32
2023-03-17T03:29:17.132Z,7.57
2023-03-17T03:31:45.551Z,8.68
2023-03-17T03:34:13.999Z,6.80
2023-03-17T03:36:42.944Z,6.95
2023-03-17T03:39:14.225Z,6.22
2023-03-17T03:41:43.447Z,7.85
2023-03-17T03:44:11.973Z,7.47
2023-03-17T03:46:42.033Z,7.30
2023-03-17T03:49:10.735Z,7.38
2023-03-17T03:51:39.456Z,5.47
2023-03-17T03:54:08.191Z,5.45
2023-03-17T03:56:36.888Z,5.55
2023-03-17T03:59:05.576Z,19.10
2023-03-17T04:01:34.338Z,125.00
2023-03-17T04:04:04.187Z,211.45
2023-03-17T04:06:32.640Z,165.23
2023-03-17T04:09:01.072Z,133.48
2023-03-17T04:11:29.564Z,65.47
2023-03-17T04:13:58.416Z,46.97
2023-03-17T04:16:27.332Z,14.63
2023-03-17T04:18:56.047Z,56.63
2023-03-17T04:21:26.614Z,63.40
2023-03-17T04:23:55.072Z,7.90
2023-03-17T04:26:25.076Z,15.10
2023-03-17T04:28:53.578Z,18.05
2023-03-17T04:31:22.263Z,11.93
2023-03-17T04:33:51.085Z,23.52
2023-03-17T04:36:27.168Z,20.17
2023-03-17T04:38:56.243Z,9.95
2023-03-17T04:41:24.699Z,10.80
2023-03-17T04:43:53.150Z,11.88
2023-03-17T04:46:21.566Z,48.88
2023-03-17T04:48:49.986Z,60.20
2023-03-17T04:51:18.497Z,144.43
2023-03-17T04:53:49.005Z,33.65
2023-03-17T04:56:17.831Z,19.85
2023-03-17T04:58:46.296Z,11.95
2023-03-17T05:01:14.914Z,11.77
2023-03-17T05:03:43.380Z,8.25
2023-03-17T05:06:12.026Z,22.42
2023-03-17T05:08:40.708Z,14.80
2023-03-17T05:11:11.718Z,13.77
2023-03-17T05:13:41.923Z,9.60
2023-03-17T05:16:11.490Z,7.47
2023-03-17T05:18:40.191Z,6.03
2023-03-17T05:21:09.109Z,5.40
2023-03-17T05:23:38.253Z,7.70
2023-03-17T05:26:06.995Z,7.47
2023-03-17T05:28:37.017Z,7.68
2023-03-17T05:31:05.703Z,6.07
2023-03-17T05:33:34.494Z,6.60
2023-03-17T05:36:03.615Z,7.32
2023-03-17T05:38:32.159Z,6.13
2023-03-17T05:41:00.658Z,7.72
2023-03-17T05:43:29.105Z,8.98
2023-03-17T05:45:59.190Z,5.47
2023-03-17T05:48:27.755Z,5.82
2023-03-17T05:50:56.258Z,5.65
2023-03-17T05:53:25.286Z,4.50
2023-03-17T05:55:53.750Z,5.15
2023-03-17T05:58:22.203Z,6.07
2023-03-17T06:00:51.141Z,7.15
2023-03-17T06:03:21.492Z,5.47
2023-03-17T06:05:50.297Z,5.40
2023-03-17T06:08:18.866Z,5.40
2023-03-17T06:10:48.648Z,6.85
2023-03-17T06:13:17.205Z,6.88
2023-03-17T06:15:46.534Z,6.00
2023-03-17T06:18:15.035Z,4.57
2023-03-17T06:20:44.861Z,5.10
2023-03-17T06:23:13.571Z,5.95
2023-03-17T06:25:42.012Z,5.68
2023-03-17T06:28:10.559Z,5.88
2023-03-17T06:30:40.769Z,6.63
2023-03-17T06:33:10.371Z,6.40
2023-03-17T06:35:39.247Z,6.95
2023-03-17T06:38:09.154Z,5.90
2023-03-17T06:40:38.299Z,4.82
2023-03-17T06:43:08.868Z,4.97
2023-03-17T06:45:37.531Z,6.25
2023-03-17T06:48:09.858Z,6.65
2023-03-17T06:50:38.460Z,5.10
2023-03-17T06:53:08.450Z,5.18
2023-03-17T06:55:37.049Z,5.45
2023-03-17T06:58:05.674Z,6.43
2023-03-17T07:00:34.192Z,6.53
2023-03-17T07:03:03.076Z,8.32
2023-03-17T07:05:31.941Z,6.65
2023-03-17T07:08:01.598Z,7.57
2023-03-17T07:10:31.554Z,10.05
2023-03-17T07:13:00.525Z,6.80
2023-03-17T07:15:32.498Z,7.50
2023-03-17T07:18:01.198Z,7.97
2023-03-17T07:20:30.328Z,6.38
2023-03-17T07:22:59.116Z,6.25
2023-03-17T07:25:27.626Z,5.32
2023-03-17T07:27:58.773Z,6.15
2023-03-17T07:30:28.026Z,5.38
2023-03-17T07:32:56.564Z,6.97
2023-03-17T07:35:25.602Z,6.35
2023-03-17T07:37:54.296Z,7.82
2023-03-17T07:40:24.176Z,6.65
2023-03-17T07:42:52.863Z,6.70
2023-03-17T07:45:22.686Z,7.63
2023-03-17T07:47:51.850Z,8.30
2023-03-17T07:50:20.580Z,7.40
2023-03-17T07:52:50.151Z,4.97
2023-03-17T07:55:18.714Z,5.18
2023-03-17T07:57:48.769Z,6.85
2023-03-17T08:00:18.927Z,6.10
2023-03-17T08:03:03.185Z,5.20
2023-03-17T08:05:37.663Z,4.50
2023-03-17T08:08:07.229Z,5.63
2023-03-17T08:10:36.217Z,4.13
2023-03-17T08:13:05.069Z,4.03
2023-03-17T08:15:34.116Z,3.72
2023-03-17T08:18:03.995Z,3.60
2023-03-17T08:20:33.254Z,3.72
2023-03-17T08:23:01.916Z,4.60
2023-03-17T08:25:32.217Z,11.98
2023-03-17T08:28:00.764Z,5.00
2023-03-17T08:30:32.378Z,5.47
2023-03-17T08:33:03.161Z,3.67
2023-03-17T08:35:32.214Z,3.67
2023-03-17T08:38:01.399Z,5.15
2023-03-17T08:40:30.815Z,3.47
2023-03-17T08:42:59.636Z,3.28
2023-03-17T08:45:28.227Z,3.53
2023-03-17T08:47:56.876Z,3.40
2023-03-17T08:50:31.347Z,3.92
2023-03-17T08:53:01.143Z,3.72
2023-03-17T08:55:30.446Z,3.83
2023-03-17T08:58:00.458Z,5.75
2023-03-17T09:00:29.241Z,4.07
2023-03-17T09:03:01.255Z,5.07
2023-03-17T09:05:31.987Z,4.70
2023-03-17T09:08:00.686Z,3.90
2023-03-17T09:10:32.257Z,4.85
2023-03-17T09:13:04.177Z,3.45
2023-03-17T09:15:34.717Z,4.28
2023-03-17T09:18:03.948Z,3.45
2023-03-17T09:20:35.028Z,4.03
2023-03-17T09:23:09.049Z,3.92
2023-03-17T09:25:41.401Z,3.92
2023-03-17T09:28:09.922Z,3.78
2023-03-17T09:30:38.419Z,5.38
2023-03-17T09:33:06.871Z,4.50
2023-03-17T09:35:36.710Z,4.40
2023-03-17T09:38:05.201Z,7.03
2023-03-17T09:40:38.713Z,5.93
2023-03-17T09:43:20.365Z,4.50
2023-03-17T09:45:48.859Z,6.23
2023-03-17T09:48:36.804Z,5.15
2023-03-17T09:51:10.295Z,4.47
2023-03-17T09:53:56.158Z,3.95
2023-03-17T09:56:25.682Z,3.90
2023-03-17T09:58:59.144Z,3.83
2023-03-17T10:01:28.076Z,4.30
2023-03-17T10:03:57.104Z,4.80
2023-03-17T10:06:40.572Z,5.57
2023-03-17T10:09:26.843Z,4.20
2023-03-17T10:12:05.399Z,5.47
2023-03-17T10:14:51.203Z,4.00
2023-03-17T10:17:23.314Z,5.72
2023-03-17T10:19:59.800Z,3.97
2023-03-17T10:22:38.198Z,3.85
2023-03-17T10:25:15.081Z,4.57
2023-03-17T10:27:46.341Z,4.22
2023-03-17T10:30:21.631Z,4.50
2023-03-17T10:32:52.537Z,3.92
2023-03-17T10:35:23.017Z,4.53
2023-03-17T10:38:04.413Z,3.17
2023-03-17T10:40:41.077Z,3.95
2023-03-17T10:43:21.765Z,4.13
2023-03-17T10:46:02.288Z,3.40
2023-03-17T10:48:32.427Z,3.42
2023-03-17T10:51:00.912Z,3.60
2023-03-17T10:53:43.005Z,4.10
2023-03-17T10:56:20.675Z,3.47
2023-03-17T10:58:51.629Z,3.85
2023-03-17T11:01:30.618Z,4.32
2023-03-17T11:04:02.569Z,3.83
2023-03-17T11:06:38.842Z,3.50
2023-03-17T11:09:12.536Z,3.20
2023-03-17T11:11:47.792Z,3.28
2023-03-17T11:14:18.722Z,3.45
2023-03-17T11:16:55.751Z,4.40
2023-03-17T11:19:38.688Z,3.92
2023-03-17T11:22:13.023Z,4.72
2023-03-17T11:24:55.803Z,3.72
2023-03-17T11:27:32.628Z,4.22
2023-03-17T11:30:20.108Z,3.80
2023-03-17T11:32:57.636Z,4.43
2023-03-17T11:35:41.513Z,3.40
2023-03-17T11:38:22.521Z,3.42
2023-03-17T11:41:15.363Z,4.80
2023-03-17T11:44:01.440Z,3.57
2023-03-17T11:46:32.321Z,3.42
2023-03-17T11:49:09.567Z,3.60
2023-03-17T11:51:50.817Z,3.15
2023-03-17T11:54:26.415Z,3.97
2023-03-17T11:56:59.997Z,3.20
2023-03-17T11:59:36.713Z,4.10
2023-03-17T12:02:19.108Z,3.30
2023-03-17T12:04:54.574Z,4.03
2023-03-17T12:07:27.398Z,5.00
2023-03-17T12:10:07.817Z,4.50
2023-03-17T12:12:42.780Z,3.38
2023-03-17T12:15:21.382Z,3.83
2023-03-17T12:17:57.695Z,3.60
2023-03-17T12:20:35.346Z,3.65
2023-03-17T12:23:14.333Z,4.27
2023-03-17T12:25:51.818Z,4.75
2023-03-17T12:28:27.278Z,5.18
2023-03-17T12:31:04.534Z,4.60
2023-03-17T12:33:43.009Z,3.25
2023-03-17T12:36:17.035Z,3.40
2023-03-17T12:38:49.440Z,3.80
2023-03-17T12:41:59.753Z,3.42
2023-03-17T12:44:58.318Z,3.00
2023-03-17T12:47:52.390Z,3.95
2023-03-17T12:50:51.771Z,3.43
2023-03-17T12:53:29.951Z,4.90
2023-03-17T12:56:08.959Z,3.55
2023-03-17T12:58:40.574Z,4.40
2023-03-17T13:01:20.969Z,3.53
2023-03-17T13:04:04.496Z,3.43
2023-03-17T13:06:40.218Z,4.07
2023-03-17T13:09:43.892Z,3.47
2023-03-17T13:13:01.655Z,5.47
2023-03-17T13:16:00.540Z,3.72
2023-03-17T13:18:50.026Z,3.80
2023-03-17T13:21:26.413Z,3.50
2023-03-17T13:24:24.349Z,6.25
2023-03-17T13:26:58.717Z,6.15
2023-03-17T13:29:45.544Z,3.83
2023-03-17T13:32:38.191Z,4.73
2023-03-17T13:35:39.603Z,5.30
2023-03-17T13:38:33.544Z,7.13
2023-03-17T13:41:21.318Z,3.83
2023-03-17T13:44:04.241Z,4.70
2023-03-17T13:46:42.805Z,3.83
2023-03-17T13:49:30.621Z,3.60
2023-03-17T13:52:09.580Z,4.90
2023-03-17T13:54:48.537Z,6.28
2023-03-17T13:57:29.143Z,5.68
2023-03-17T14:00:24.279Z,5.30
2023-03-17T14:03:02.716Z,4.43
2023-03-17T14:05:36.120Z,3.83
2023-03-17T14:08:15.586Z,3.88
2023-03-17T14:10:45.074Z,5.20
2023-03-17T14:13:21.965Z,4.67
2023-03-17T14:15:57.281Z,4.20
2023-03-17T14:18:34.128Z,4.00
2023-03-17T14:21:10.490Z,4.25
2023-03-17T14:23:41.360Z,5.50
2023-03-17T14:26:13.117Z,4.57
2023-03-17T14:28:41.720Z,4.78
2023-03-17T14:31:25.034Z,3.78
2023-03-17T14:33:57.469Z,3.72
2023-03-17T14:36:34.364Z,4.20
2023-03-17T14:39:04.564Z,3.93
2023-03-17T14:41:36.396Z,5.30
2023-03-17T14:44:04.911Z,4.18
2023-03-17T14:46:37.311Z,4.97
2023-03-17T14:49:16.714Z,3.67
2023-03-17T14:51:45.639Z,5.53
2023-03-17T14:54:19.824Z,4.70
2023-03-17T14:56:50.957Z,4.07
2023-03-17T14:59:25.414Z,4.68
2023-03-17T15:01:57.544Z,31.33
2023-03-17T15:04:28.649Z,6.07
2023-03-17T15:06:59.897Z,5.38
2023-03-17T15:09:36.544Z,4.40
2023-03-17T15:12:08.343Z,6.38
2023-03-17T15:14:40.611Z,4.70
2023-03-17T15:17:19.312Z,20.13
2023-03-17T15:19:50.718Z,9.27
2023-03-17T15:22:26.361Z,9.48
2023-03-17T15:25:04.078Z,19.38
2023-03-17T15:27:33.829Z,12.02
2023-03-17T15:30:03.196Z,13.27
2023-03-17T15:32:32.350Z,13.10
2023-03-17T15:35:00.864Z,14.57
2023-03-17T15:37:31.696Z,13.15
2023-03-17T15:40:03.350Z,12.38
2023-03-17T15:42:34.334Z,15.43
2023-03-17T15:45:03.785Z,11.60
2023-03-17T15:47:35.398Z,12.75
2023-03-17T15:50:16.243Z,13.25
2023-03-17T15:52:46.245Z,11.00
2023-03-17T15:55:24.700Z,13.17
2023-03-17T15:57:55.562Z,8.52
2023-03-17T16:00:26.997Z,7.85
2023-03-17T16:02:58.060Z,7.72
2023-03-17T16:05:28.901Z,7.93
2023-03-17T16:07:57.856Z,8.87
2023-03-17T16:10:30.820Z,9.52
2023-03-17T16:13:00.182Z,7.45
2023-03-17T16:15:32.639Z,7.53
2023-03-17T16:18:04.246Z,6.38
2023-03-17T16:20:39.518Z,6.20
2023-03-17T16:23:12.794Z,5.68
2023-03-17T16:25:42.983Z,5.82
2023-03-17T16:28:18.289Z,6.43
2023-03-17T16:30:48.662Z,6.40
2023-03-17T16:33:20.041Z,5.50
2023-03-17T16:35:50.001Z,5.88
2023-03-17T16:38:20.576Z,5.50
2023-03-17T16:40:53.789Z,5.15
2023-03-17T16:43:26.072Z,5.90
2023-03-17T16:45:57.034Z,5.20
2023-03-17T16:48:26.111Z,7.72
2023-03-17T16:50:55.123Z,6.40
2023-03-17T16:53:24.289Z,5.47
2023-03-17T16:55:55.738Z,6.65
2023-03-17T16:58:26.390Z,8.57
2023-03-17T17:00:59.157Z,7.15
2023-03-17T17:03:28.071Z,7.22
2023-03-17T17:05:56.587Z,7.97
2023-03-17T17:08:25.904Z,6.82
2023-03-17T17:10:57.353Z,6.47
2023-03-17T17:13:26.334Z,9.40
2023-03-17T17:15:55.818Z,7.45
2023-03-17T17:18:25.620Z,7.10
2023-03-17T17:20:55.373Z,6.57
2023-03-17T17:23:26.471Z,7.70
2023-03-17T17:25:56.862Z,6.88
2023-03-17T17:28:27.208Z,10.48
2023-03-17T17:30:55.970Z,6.45
2023-03-17T17:33:25.112Z,6.55
2023-03-17T17:35:54.529Z,8.63
2023-03-17T17:38:26.796Z,8.82
2023-03-17T17:40:59.053Z,8.70
2023-03-17T17:43:27.619Z,7.07
2023-03-17T17:45:56.503Z,7.63
2023-03-17T17:48:27.718Z,6.93
2023-03-17T17:50:57.889Z,7.85
2023-03-17T17:53:26.639Z,6.90
2023-03-17T17:55:57.717Z,7.53
2023-03-17T17:58:27.686Z,5.95
2023-03-17T18:00:57.633Z,7.80
2023-03-17T18:03:27.359Z,8.27
2023-03-17T18:05:57.824Z,7.90
2023-03-17T18:08:27.132Z,6.65
2023-03-17T18:10:57.546Z,8.70
2023-03-17T18:13:26.365Z,6.37
2023-03-17T18:15:54.815Z,7.35
2023-03-17T18:18:23.302Z,8.35
2023-03-17T18:20:52.620Z,10.77
2023-03-17T18:23:21.638Z,8.20
2023-03-17T18:25:50.459Z,6.83
2023-03-17T18:28:20.544Z,9.45
2023-03-17T18:30:49.041Z,7.90
2023-03-17T18:33:21.036Z,12.02
2023-03-17T18:35:52.262Z,11.85
2023-03-17T18:38:21.132Z,14.67
2023-03-17T18:40:49.697Z,13.65
2023-03-17T18:43:19.932Z,11.00
2023-03-17T18:45:48.657Z,18.42
2023-03-17T18:48:17.335Z,12.60
2023-03-17T18:50:46.385Z,11.57
2023-03-17T18:53:16.132Z,12.20
2023-03-17T18:55:44.687Z,13.50
2023-03-17T18:58:13.176Z,10.93
2023-03-17T19:00:43.134Z,7.15
2023-03-17T19:03:12.066Z,22.73
2023-03-17T19:05:41.057Z,8.75
2023-03-17T19:08:09.555Z,11.07
2023-03-17T19:10:38.215Z,11.82
2023-03-17T19:13:10.224Z,5.63
2023-03-17T19:15:38.932Z,5.33
2023-03-17T19:18:09.768Z,7.30
2023-03-17T19:20:38.213Z,5.85
2023-03-17T19:23:07.060Z,4.72
2023-03-17T19:25:36.848Z,22.20
2023-03-17T19:28:06.423Z,23.80
2023-03-17T19:30:35.763Z,37.80
2023-03-17T19:33:04.606Z,6.53
2023-03-17T19:35:34.462Z,13.05
2023-03-17T19:38:04.076Z,17.58
2023-03-17T19:40:32.966Z,13.10
2023-03-17T19:43:01.520Z,56.22
2023-03-17T19:45:30.039Z,13.50
2023-03-17T19:47:58.762Z,8.82
2023-03-17T19:50:27.491Z,11.32
2023-03-17T19:52:57.570Z,11.90
2023-03-17T19:55:27.065Z,18.20
2023-03-17T19:57:55.708Z,19.85
2023-03-17T20:00:24.731Z,11.55
2023-03-17T20:02:53.254Z,10.00
2023-03-17T20:05:22.130Z,10.93
2023-03-17T20:07:50.614Z,10.98
2023-03-17T20:10:20.972Z,9.80
2023-03-17T20:12:49.450Z,8.23
2023-03-17T20:15:18.464Z,8.35
2023-03-17T20:17:47.028Z,8.00
2023-03-17T20:20:16.148Z,11.40
2023-03-17T20:22:45.254Z,15.77
2023-03-17T20:25:13.942Z,19.85
2023-03-17T20:27:43.840Z,17.50
2023-03-17T20:30:13.579Z,16.07
2023-03-17T20:32:42.076Z,8.07
2023-03-17T20:35:11.269Z,10.23
2023-03-17T20:37:40.056Z,12.90
2023-03-17T20:40:10.734Z,13.85
2023-03-17T20:42:39.456Z,11.33
2023-03-17T20:45:10.361Z,16.30
2023-03-17T20:47:38.820Z,16.42
2023-03-17T20:50:09.984Z,16.25
2023-03-17T20:52:39.770Z,20.17
2023-03-17T20:55:13.939Z,19.20
2023-03-17T20:57:45.592Z,8.55
2023-03-17T21:00:20.105Z,8.65
2023-03-17T21:02:50.645Z,4.85
2023-03-17T21:05:23.146Z,3.72
2023-03-17T21:07:52.754Z,3.78
2023-03-17T21:10:21.713Z,7.40
2023-03-17T21:12:50.456Z,4.15
2023-03-17T21:15:22.895Z,4.30
2023-03-17T21:17:51.419Z,4.38
2023-03-17T21:20:21.480Z,3.90
2023-03-17T21:22:50.040Z,4.05
2023-03-17T21:25:19.286Z,4.10
2023-03-17T21:27:47.790Z,4.95
2023-03-17T21:30:16.754Z,9.35
2023-03-17T21:32:46.570Z,5.20
2023-03-17T21:35:16.534Z,4.63
2023-03-17T21:37:45.050Z,5.53
2023-03-17T21:40:16.009Z,5.28
2023-03-17T21:42:44.538Z,5.28
2023-03-17T21:45:13.871Z,4.03
2023-03-17T21:47:42.601Z,3.97
2023-03-17T21:50:14.216Z,4.13
2023-03-17T21:52:43.819Z,3.92
2023-03-17T21:55:12.412Z,4.95
2023-03-17T21:57:40.877Z,3.50
2023-03-17T22:00:12.381Z,7.43
2023-03-17T22:02:41.838Z,5.30
2023-03-17T22:05:12.105Z,4.18
2023-03-17T22:10:30.074Z,5.77
2023-03-17T22:12:58.606Z,4.47
2023-03-17T22:15:27.036Z,5.25
2023-03-17T22:17:56.900Z,4.00
2023-03-17T22:20:26.732Z,4.30
2023-03-17T22:22:55.177Z,4.23
2023-03-17T22:25:24.058Z,4.00
2023-03-17T22:27:53.735Z,5.15
2023-03-17T22:30:22.495Z,5.00
2023-03-17T22:32:51.155Z,5.22
2023-03-17T22:35:20.948Z,4.77
2023-03-17T22:37:51.046Z,4.70
2023-03-17T22:40:19.784Z,5.03
2023-03-17T22:42:48.262Z,5.03
2023-03-17T22:45:17.942Z,3.90
2023-03-17T22:47:46.389Z,5.37
2023-03-17T22:50:15.049Z,4.25
2023-03-17T22:52:43.572Z,4.38
2023-03-17T22:55:13.745Z,4.60
2023-03-17T22:57:42.322Z,4.38
2023-03-17T23:00:17.269Z,6.30
2023-03-17T23:02:46.375Z,4.45
2023-03-17T23:05:16.153Z,3.83
2023-03-17T23:07:50.628Z,5.85
2023-03-17T23:10:24.696Z,4.63
2023-03-17T23:12:53.910Z,5.07
2023-03-17T23:15:23.136Z,4.13
2023-03-17T23:17:51.995Z,5.53
2023-03-17T23:20:20.709Z,5.60
2023-03-17T23:22:49.597Z,5.18
2023-03-17T23:25:18.756Z,6.43
2023-03-17T23:27:49.397Z,6.72
2023-03-17T23:30:18.862Z,6.57
2023-03-17T23:32:48.268Z,5.07
2023-03-17T23:35:17.536Z,6.88
2023-03-17T23:37:46.042Z,5.03
2023-03-17T23:40:17.311Z,6.30
2023-03-17T23:42:49.240Z,5.00
2023-03-17T23:45:18.715Z,6.18
2023-03-17T23:47:48.739Z,6.13
2023-03-17T23:50:17.746Z,5.67
2023-03-17T23:52:47.348Z,3.90
2023-03-17T23:55:17.168Z,5.97
2023-03-17T23:57:47.356Z,6.28
